Terminal Aerodrome Forecast
Issued by NWS Greer, SC

Home | Current Version | Previous Version | Text Only | Print | Product List | Glossary On
Versions: 1 2 3 4 5 6 7 8 9 10 11 12 13 14 15 16 17 18 19 20 21 22
000
FTUS42 KGSP 242300 RRA
TAFCLT
TAF
KCLT 242341Z 2500/2524 16007KT P6SM SCT060 SCT250
     FM251000 15005KT P6SM BKN010 OVC060
     FM251100 15006KT P6SM BKN005 OVC010
     FM251300 16008KT P6SM BKN010 OVC027
     FM251500 21011G20KT P6SM SCT027 OVC045 PROB30 2515/2521 4SM
      TSRA OVC014CB
     FM252100 24009KT P6SM SCT070=

USA.gov is the U.S. government's official web portal to all federal, state and local government web resources and services.